»·PEaware :: N735MS KAVQ-KBXK

N735MS :: KAVQ-KBXK

FLIGHT INFORMATION

Flight Status: Arrived
Operator: Privately registered:
United States
More flights under this callsign
Pilot: Mike S. (27846)
Aircraft: PIPER PA-28R-201 ARROW
(P28R)
More flights by this aircraft type
Origin: KAVQ Marana Northwest Regl
United States
Destination: KBXK Buckeye Mun
United States
More flights between these airports :: More routes between these airports
Route: DIRECT
File this flight plan on PilotEdge
Remarks:
Altitude:
(Current/Filed)
6,500ft
Speed:
(Current/Filed)
135kts
Departed: 07-Oct-20 07:22 PM
Arrived: 07-Oct-20 08:06 PM
Distance/Time
Traveled:
96nm/0:44
Distance/Time
To Go:
Arrived

Flight Plot

Page will automatically refresh every two minutes.

Flight plan parsing failed; only flown route is shown


Map Options




Map Legend


Flown Route
Filed Route
Departure Airport
Arrival Airport
Navaid (VOR, NDB)
Fix

Horizontal Profiles

Position Reports

Time Latitude Longitude Heading Altitude Ground
Speed
07-Oct-20 19:14 32.406888 -111.216845 313 2031ft 0kts
07-Oct-20 19:15 32.406888 -111.216845 313 2031ft 0kts
07-Oct-20 19:16 32.406888 -111.216845 313 2031ft 0kts
07-Oct-20 19:17 32.406888 -111.216845 313 2031ft 0kts
07-Oct-20 19:18 32.406888 -111.216845 313 2031ft 0kts
07-Oct-20 19:19 32.406723 -111.215374 134 2031ft 17kts
07-Oct-20 19:19 32.404088 -111.212349 134 2031ft 17kts
07-Oct-20 19:21 32.404332 -111.210748 315 2031ft 0kts
07-Oct-20 19:22 32.419237 -111.227457 321 2646ft 91kts
07-Oct-20 19:23 32.436497 -111.250304 311 3667ft 96kts
07-Oct-20 19:24 32.455321 -111.274807 309 4486ft 108kts
07-Oct-20 19:24 32.471312 -111.298958 307 5065ft 115kts
07-Oct-20 19:26 32.494231 -111.333756 316 5897ft 115kts
07-Oct-20 19:26 32.511978 -111.357913 312 6432ft 118kts
07-Oct-20 19:27 32.535021 -111.392020 310 6499ft 142kts
07-Oct-20 19:28 32.560319 -111.428613 311 6495ft 144kts
07-Oct-20 19:29 32.585948 -111.465461 311 6490ft 145kts
07-Oct-20 19:30 32.611602 -111.502388 311 6483ft 145kts
07-Oct-20 19:31 32.637387 -111.539539 312 6475ft 146kts
07-Oct-20 19:32 32.663240 -111.576831 312 6468ft 146kts
07-Oct-20 19:33 32.689186 -111.614297 312 6464ft 147kts
07-Oct-20 19:34 32.715165 -111.651846 311 6463ft 147kts
07-Oct-20 19:35 32.741086 -111.689349 311 6462ft 146kts
07-Oct-20 19:36 32.764111 -111.722695 311 6462ft 146kts
07-Oct-20 19:37 32.789992 -111.760212 311 6462ft 146kts
07-Oct-20 19:38 32.815862 -111.797750 311 6462ft 146kts
07-Oct-20 19:39 32.841800 -111.835426 311 6462ft 146kts
07-Oct-20 19:40 32.867647 -111.873007 311 6463ft 146kts
07-Oct-20 19:41 32.893406 -111.910501 311 6463ft 146kts
07-Oct-20 19:42 32.919264 -111.948180 311 6463ft 147kts
07-Oct-20 19:43 32.945109 -111.985875 311 6463ft 147kts
07-Oct-20 19:44 32.970924 -112.023566 311 6462ft 147kts
07-Oct-20 19:45 32.996686 -112.061189 306 6461ft 143kts
07-Oct-20 19:46 33.020669 -112.096251 306 6517ft 135kts
07-Oct-20 19:47 33.044605 -112.131361 306 6511ft 137kts
07-Oct-20 19:48 33.068768 -112.166771 306 6505ft 138kts
07-Oct-20 19:49 33.092961 -112.202261 306 6500ft 137kts
07-Oct-20 19:50 33.117042 -112.237665 307 6496ft 137kts
07-Oct-20 19:51 33.141014 -112.272912 307 6493ft 136kts
07-Oct-20 19:52 33.165715 -112.307197 314 6491ft 137kts
07-Oct-20 19:53 33.192046 -112.339836 307 6489ft 136kts
07-Oct-20 19:54 33.213254 -112.378568 300 6219ft 146kts
07-Oct-20 19:55 33.234348 -112.420030 300 5722ft 148kts
07-Oct-20 19:56 33.255616 -112.462477 300 5217ft 148kts
07-Oct-20 19:57 33.276443 -112.504976 300 4715ft 148kts
07-Oct-20 19:58 33.296901 -112.547809 301 4209ft 149kts
07-Oct-20 19:59 33.317138 -112.593107 300 3717ft 156kts
07-Oct-20 20:00 33.337510 -112.638714 300 3222ft 154kts
07-Oct-20 20:01 33.355511 -112.679391 300 2714ft 129kts
07-Oct-20 20:02 33.377574 -112.691026 22 2279ft 94kts
07-Oct-20 20:03 33.400164 -112.687335 10 1546ft 74kts
07-Oct-20 20:04 33.418760 -112.686398 1 1035ft 44kts
07-Oct-20 20:05 33.420611 -112.684987 185 1035ft 0kts
07-Oct-20 20:06 33.420611 -112.684987 185 1035ft 0kts
07-Oct-20 20:07 33.420611 -112.684987 185 1035ft 0kts

Navigation Log

Ident Type
Flight plan parsing failed, navigation log unavailable